Oakland, CA

11:09 AM PDT on August 22, 2014 (GMT -0700)
ALLENDALE | Change Station
CLOSE
Current Station
Personal Weather Station
Location: Oakland, CA
Elevation: 141 ft
Nearby Weather Stations

Elev 141 ft 37.79 °N, 122.20 °W | Updated 13 minutes ago

Partly Cloudy
Partly Cloudy
76.8 °F
Feels Like 79 °F
N
4.2
Wind Variable Wind from SSE

Today
High -- | Low -- °F
--% Chance of Precip.
Yesterday
High -- | Low -- °F
Precip. -- in
6:30 AM 7:52 PM
Waning Crescent, 7% visible
Pressure 29.95 in
Visibility 10.0 miles
Clouds Few 1300 ft
Heat Index 79 °F
Dew Point 58 °F
Humidity 53%
Rainfall 0.00 in
Snow Depth Not available.
UV 7 out of 12
Pollen 5.70 out of 12
PM2.5 Good
Flu Activity Not available.
METAR KOAK 221753Z 30007KT 10SM FEW013 22/13 A2995 RMK AO2 SLP141 T02170128 10217 20172 53003

More Conditions Fewer Conditions

Pressure 29.95 in
Visibility 10.0 miles
Clouds Few 1300 ft
Heat Index 79 °F
Dew Point 58 °F
Humidity 53%
Rainfall 0.00 in
Snow Depth Not available.
UV 7 out of 12
Pollen 5.70 out of 12
PM2.5 Good
Flu Activity Not available.
METAR KOAK 221753Z 30007KT 10SM FEW013 22/13 A2995 RMK AO2 SLP141 T02170128 10217 20172 53003

More Conditions Fewer Conditions

10-Day Weather Forecast

Almanac

Astronomy

Aug. 22, 2014 Rise Set
Actual Time 6:30 AM PDT 7:52 PM PDT
Civil Twilight 6:03 AM PDT 8:19 PM PDT
Nautical Twilight 5:30 AM PDT 8:52 PM PDT
Astronomical Twilight 4:55 AM PDT 9:26 PM PDT
Moon 3:59 AM PDT 6:03 PM PDT
Length of Visible Light 14h 16m
Length of Day
13h 21m
Tomorrow will be 2m 15s shorter.
Waning Crescent, 7% of the Moon is Illuminated
Today
Waning Crescent
Aug 25
New
Sep 2
First Quarter
Sep 8
Full
Sep 15
Last Quarter

Today's Extremes

State Highs State Lows

Community

WunderPhotos

Upload Photos

1,746,213 photos uploaded!

WunderBlogs® & News

Nearby

Air Quality

  Air Quality AQ Index Pollutant
Yesterday Good
PM2.5
Yesterday Good
OZONE
Current Good
PM2.5
Friday Good
PM2.5
Saturday Good
PM2.5
Sunday Moderate
PM2.5
Monday Moderate
PM2.5
Tuesday Moderate
PM2.5
Wednesday Moderate
PM2.5

Snow Depth

Station Depth Elevation
Blue Lakes 0 in 8000 ft
Forestdale Creek 0 in 8029 ft
Echo Peak 0 in 7800 ft
Hagan's Meadow 0 in 8000 ft
Leavitt Lake 0 in 9400 ft

Earthquake Activity

City Distance Mag. Time & Date
Berkeley, California 6 miles 2.6 7:41 PM PDT
2014-08-16
King City, California 126 miles 2.7 10:26 PM PDT
2014-08-15
Minimum magnitude displayed is 2.5.

Coastal Water Temperatures

Place Temperature
No Stations Reporting

Nearby Weather Stations